sensor_id;sensor_type;location;lat;lon;timestamp;temperature;humidity
65291;SHT30;51893;59.754;10.110;2022-07-21T00:00:20;20.67;71.33
65291;SHT30;51893;59.754;10.110;2022-07-21T00:03:03;20.64;71.49
65291;SHT30;51893;59.754;10.110;2022-07-21T00:05:31;20.59;71.62
65291;SHT30;51893;59.754;10.110;2022-07-21T00:07:59;20.58;71.72
65291;SHT30;51893;59.754;10.110;2022-07-21T00:10:26;20.59;71.51
65291;SHT30;51893;59.754;10.110;2022-07-21T00:12:55;20.64;71.38
65291;SHT30;51893;59.754;10.110;2022-07-21T00:15:25;20.69;71.27
65291;SHT30;51893;59.754;10.110;2022-07-21T00:17:54;20.74;71.02
65291;SHT30;51893;59.754;10.110;2022-07-21T00:20:23;20.58;71.61
65291;SHT30;51893;59.754;10.110;2022-07-21T00:22:51;20.39;72.60
65291;SHT30;51893;59.754;10.110;2022-07-21T00:25:20;20.24;73.19
65291;SHT30;51893;59.754;10.110;2022-07-21T00:27:48;20.20;73.42
65291;SHT30;51893;59.754;10.110;2022-07-21T00:30:16;20.19;73.59
65291;SHT30;51893;59.754;10.110;2022-07-21T00:32:44;20.18;73.65
65291;SHT30;51893;59.754;10.110;2022-07-21T00:35:12;20.23;73.70
65291;SHT30;51893;59.754;10.110;2022-07-21T00:37:41;20.22;73.77
65291;SHT30;51893;59.754;10.110;2022-07-21T00:40:10;20.20;73.90
65291;SHT30;51893;59.754;10.110;2022-07-21T00:42:40;20.17;73.79
65291;SHT30;51893;59.754;10.110;2022-07-21T00:45:10;20.21;73.44
65291;SHT30;51893;59.754;10.110;2022-07-21T00:47:39;20.26;73.34
65291;SHT30;51893;59.754;10.110;2022-07-21T00:50:09;20.26;73.52
65291;SHT30;51893;59.754;10.110;2022-07-21T00:52:46;20.30;73.54
65291;SHT30;51893;59.754;10.110;2022-07-21T00:55:17;20.34;73.73
65291;SHT30;51893;59.754;10.110;2022-07-21T00:57:47;20.37;73.73
65291;SHT30;51893;59.754;10.110;2022-07-21T01:00:18;20.39;74.18
65291;SHT30;51893;59.754;10.110;2022-07-21T01:02:54;20.38;74.88
65291;SHT30;51893;59.754;10.110;2022-07-21T01:05:24;20.38;75.61
65291;SHT30;51893;59.754;10.110;2022-07-21T01:07:53;20.38;76.02
65291;SHT30;51893;59.754;10.110;2022-07-21T01:10:23;20.39;76.11
65291;SHT30;51893;59.754;10.110;2022-07-21T01:12:52;20.41;75.92
65291;SHT30;51893;59.754;10.110;2022-07-21T01:15:20;20.32;76.00
65291;SHT30;51893;59.754;10.110;2022-07-21T01:17:49;20.32;76.59
65291;SHT30;51893;59.754;10.110;2022-07-21T01:20:18;20.29;76.75
65291;SHT30;51893;59.754;10.110;2022-07-21T01:22:51;20.34;76.66
65291;SHT30;51893;59.754;10.110;2022-07-21T01:25:23;20.37;77.10
65291;SHT30;51893;59.754;10.110;2022-07-21T01:27:51;20.38;77.15
65291;SHT30;51893;59.754;10.110;2022-07-21T01:30:20;20.38;77.17
65291;SHT30;51893;59.754;10.110;2022-07-21T01:32:48;20.37;77.20
65291;SHT30;51893;59.754;10.110;2022-07-21T01:35:16;20.26;77.56
65291;SHT30;51893;59.754;10.110;2022-07-21T01:37:45;20.15;77.82
65291;SHT30;51893;59.754;10.110;2022-07-21T01:40:15;20.04;77.87
65291;SHT30;51893;59.754;10.110;2022-07-21T01:43:03;20.05;77.80
65291;SHT30;51893;59.754;10.110;2022-07-21T01:45:39;20.02;78.21
65291;SHT30;51893;59.754;10.110;2022-07-21T01:48:08;20.03;78.29
65291;SHT30;51893;59.754;10.110;2022-07-21T01:50:37;20.06;78.18
65291;SHT30;51893;59.754;10.110;2022-07-21T01:53:05;20.10;78.04
65291;SHT30;51893;59.754;10.110;2022-07-21T01:55:33;20.13;77.98
65291;SHT30;51893;59.754;10.110;2022-07-21T01:58:01;20.17;77.89
65291;SHT30;51893;59.754;10.110;2022-07-21T02:00:28;20.17;78.30
65291;SHT30;51893;59.754;10.110;2022-07-21T02:02:56;20.17;78.25
65291;SHT30;51893;59.754;10.110;2022-07-21T02:05:24;20.20;78.16
65291;SHT30;51893;59.754;10.110;2022-07-21T02:07:52;20.17;78.50
65291;SHT30;51893;59.754;10.110;2022-07-21T02:10:20;20.14;78.57
65291;SHT30;51893;59.754;10.110;2022-07-21T02:12:48;20.03;78.54
65291;SHT30;51893;59.754;10.110;2022-07-21T02:15:15;19.93;78.89
65291;SHT30;51893;59.754;10.110;2022-07-21T02:17:43;19.92;78.81
65291;SHT30;51893;59.754;10.110;2022-07-21T02:20:11;19.86;79.09
65291;SHT30;51893;59.754;10.110;2022-07-21T02:22:39;19.86;79.13
65291;SHT30;51893;59.754;10.110;2022-07-21T02:25:07;19.82;79.23
65291;SHT30;51893;59.754;10.110;2022-07-21T02:27:35;19.83;79.28
65291;SHT30;51893;59.754;10.110;2022-07-21T02:30:03;19.79;79.47
65291;SHT30;51893;59.754;10.110;2022-07-21T02:32:31;19.79;79.30
65291;SHT30;51893;59.754;10.110;2022-07-21T02:34:59;19.83;79.07
65291;SHT30;51893;59.754;10.110;2022-07-21T02:37:28;19.82;79.50
65291;SHT30;51893;59.754;10.110;2022-07-21T02:39:56;19.74;79.87
65291;SHT30;51893;59.754;10.110;2022-07-21T02:42:24;19.68;79.90
65291;SHT30;51893;59.754;10.110;2022-07-21T02:44:52;19.70;80.06
65291;SHT30;51893;59.754;10.110;2022-07-21T02:47:21;19.66;80.46
65291;SHT30;51893;59.754;10.110;2022-07-21T02:49:49;19.60;80.53
65291;SHT30;51893;59.754;10.110;2022-07-21T02:52:18;19.63;80.10
65291;SHT30;51893;59.754;10.110;2022-07-21T02:54:48;19.65;80.44
65291;SHT30;51893;59.754;10.110;2022-07-21T02:57:16;19.67;80.14
65291;SHT30;51893;59.754;10.110;2022-07-21T02:59:43;19.68;80.09
65291;SHT30;51893;59.754;10.110;2022-07-21T03:02:11;19.69;80.19
65291;SHT30;51893;59.754;10.110;2022-07-21T03:04:39;19.65;80.53
65291;SHT30;51893;59.754;10.110;2022-07-21T03:07:07;19.64;80.69
65291;SHT30;51893;59.754;10.110;2022-07-21T03:09:34;19.64;80.63
65291;SHT30;51893;59.754;10.110;2022-07-21T03:12:02;19.61;80.73
65291;SHT30;51893;59.754;10.110;2022-07-21T03:14:30;19.61;80.72
65291;SHT30;51893;59.754;10.110;2022-07-21T03:16:58;19.57;80.88
65291;SHT30;51893;59.754;10.110;2022-07-21T03:19:28;19.59;80.95
65291;SHT30;51893;59.754;10.110;2022-07-21T03:21:56;19.58;80.74
65291;SHT30;51893;59.754;10.110;2022-07-21T03:24:23;19.58;80.69
65291;SHT30;51893;59.754;10.110;2022-07-21T03:26:52;19.56;80.87
65291;SHT30;51893;59.754;10.110;2022-07-21T03:29:19;19.54;81.47
65291;SHT30;51893;59.754;10.110;2022-07-21T03:31:47;19.52;81.47
65291;SHT30;51893;59.754;10.110;2022-07-21T03:34:15;19.55;81.25
65291;SHT30;51893;59.754;10.110;2022-07-21T03:36:44;19.59;81.14
65291;SHT30;51893;59.754;10.110;2022-07-21T03:39:11;19.57;81.27
65291;SHT30;51893;59.754;10.110;2022-07-21T03:41:39;19.53;81.33
65291;SHT30;51893;59.754;10.110;2022-07-21T03:44:07;19.53;81.78
65291;SHT30;51893;59.754;10.110;2022-07-21T03:46:34;19.55;81.73
65291;SHT30;51893;59.754;10.110;2022-07-21T03:49:02;19.60;81.44
65291;SHT30;51893;59.754;10.110;2022-07-21T03:51:30;19.66;81.39
65291;SHT30;51893;59.754;10.110;2022-07-21T03:53:58;19.65;81.60
65291;SHT30;51893;59.754;10.110;2022-07-21T03:56:26;19.61;81.69
65291;SHT30;51893;59.754;10.110;2022-07-21T03:58:54;19.61;81.49
65291;SHT30;51893;59.754;10.110;2022-07-21T04:01:23;19.66;81.36
65291;SHT30;51893;59.754;10.110;2022-07-21T04:03:50;19.66;81.36
65291;SHT30;51893;59.754;10.110;2022-07-21T04:06:18;19.59;81.46
65291;SHT30;51893;59.754;10.110;2022-07-21T04:08:46;19.53;81.54
65291;SHT30;51893;59.754;10.110;2022-07-21T04:11:14;19.52;81.94
65291;SHT30;51893;59.754;10.110;2022-07-21T04:13:42;19.53;82.09
65291;SHT30;51893;59.754;10.110;2022-07-21T04:16:09;19.56;82.12
65291;SHT30;51893;59.754;10.110;2022-07-21T04:18:37;19.61;82.01
65291;SHT30;51893;59.754;10.110;2022-07-21T04:21:05;19.67;81.99
65291;SHT30;51893;59.754;10.110;2022-07-21T04:23:33;19.73;82.06
65291;SHT30;51893;59.754;10.110;2022-07-21T04:26:01;19.82;82.05
65291;SHT30;51893;59.754;10.110;2022-07-21T04:28:29;19.88;81.93
65291;SHT30;51893;59.754;10.110;2022-07-21T04:30:57;19.86;82.04
65291;SHT30;51893;59.754;10.110;2022-07-21T04:33:25;19.85;82.01
65291;SHT30;51893;59.754;10.110;2022-07-21T04:35:53;19.86;81.99
65291;SHT30;51893;59.754;10.110;2022-07-21T04:38:21;19.87;81.89
65291;SHT30;51893;59.754;10.110;2022-07-21T04:40:49;19.90;81.96
65291;SHT30;51893;59.754;10.110;2022-07-21T04:43:16;19.88;81.91
65291;SHT30;51893;59.754;10.110;2022-07-21T04:45:44;19.83;81.81
65291;SHT30;51893;59.754;10.110;2022-07-21T04:48:13;19.79;81.72
65291;SHT30;51893;59.754;10.110;2022-07-21T04:50:41;19.76;81.77
65291;SHT30;51893;59.754;10.110;2022-07-21T04:53:09;19.76;81.84
65291;SHT30;51893;59.754;10.110;2022-07-21T04:55:38;19.80;81.90
65291;SHT30;51893;59.754;10.110;2022-07-21T04:58:06;19.84;81.85
65291;SHT30;51893;59.754;10.110;2022-07-21T05:00:34;19.90;81.65
65291;SHT30;51893;59.754;10.110;2022-07-21T05:03:02;19.95;81.70
65291;SHT30;51893;59.754;10.110;2022-07-21T05:05:29;20.01;81.68
65291;SHT30;51893;59.754;10.110;2022-07-21T05:07:57;20.05;81.47
65291;SHT30;51893;59.754;10.110;2022-07-21T05:10:25;20.09;81.58
65291;SHT30;51893;59.754;10.110;2022-07-21T05:12:53;20.12;81.89
65291;SHT30;51893;59.754;10.110;2022-07-21T05:15:21;20.11;81.93
65291;SHT30;51893;59.754;10.110;2022-07-21T05:17:49;20.11;81.92
65291;SHT30;51893;59.754;10.110;2022-07-21T05:20:17;20.10;81.55
65291;SHT30;51893;59.754;10.110;2022-07-21T05:22:44;20.09;81.52
65291;SHT30;51893;59.754;10.110;2022-07-21T05:25:12;20.13;81.19
65291;SHT30;51893;59.754;10.110;2022-07-21T05:27:40;20.13;81.25
65291;SHT30;51893;59.754;10.110;2022-07-21T05:30:08;20.19;81.31
65291;SHT30;51893;59.754;10.110;2022-07-21T05:32:38;20.25;81.28
65291;SHT30;51893;59.754;10.110;2022-07-21T05:35:14;20.27;81.13
65291;SHT30;51893;59.754;10.110;2022-07-21T05:37:43;20.32;80.97
65291;SHT30;51893;59.754;10.110;2022-07-21T05:40:13;20.40;80.42
65291;SHT30;51893;59.754;10.110;2022-07-21T05:42:42;20.40;79.96
65291;SHT30;51893;59.754;10.110;2022-07-21T05:45:10;20.44;80.16
65291;SHT30;51893;59.754;10.110;2022-07-21T05:47:39;20.51;80.12
65291;SHT30;51893;59.754;10.110;2022-07-21T05:50:08;20.53;80.06
65291;SHT30;51893;59.754;10.110;2022-07-21T05:52:37;20.56;80.06
65291;SHT30;51893;59.754;10.110;2022-07-21T05:55:05;20.59;79.80
65291;SHT30;51893;59.754;10.110;2022-07-21T05:57:35;20.66;79.62
65291;SHT30;51893;59.754;10.110;2022-07-21T06:00:12;20.74;79.28
65291;SHT30;51893;59.754;10.110;2022-07-21T06:02:43;20.83;79.22
65291;SHT30;51893;59.754;10.110;2022-07-21T06:05:12;20.87;78.80
65291;SHT30;51893;59.754;10.110;2022-07-21T06:07:41;20.88;78.65
65291;SHT30;51893;59.754;10.110;2022-07-21T06:10:09;20.94;78.66
65291;SHT30;51893;59.754;10.110;2022-07-21T06:12:43;20.94;78.31
65291;SHT30;51893;59.754;10.110;2022-07-21T06:15:12;20.96;78.18
65291;SHT30;51893;59.754;10.110;2022-07-21T06:17:44;20.99;78.31
65291;SHT30;51893;59.754;10.110;2022-07-21T06:20:13;21.04;78.36
65291;SHT30;51893;59.754;10.110;2022-07-21T06:22:41;21.07;78.22
65291;SHT30;51893;59.754;10.110;2022-07-21T06:25:09;21.07;77.98
65291;SHT30;51893;59.754;10.110;2022-07-21T06:27:37;21.04;77.89
65291;SHT30;51893;59.754;10.110;2022-07-21T06:30:05;21.06;77.91
65291;SHT30;51893;59.754;10.110;2022-07-21T06:32:34;21.06;77.84
65291;SHT30;51893;59.754;10.110;2022-07-21T06:35:02;21.07;77.65
65291;SHT30;51893;59.754;10.110;2022-07-21T06:37:31;21.12;77.58
65291;SHT30;51893;59.754;10.110;2022-07-21T06:39:58;21.18;77.31
65291;SHT30;51893;59.754;10.110;2022-07-21T06:42:26;21.23;77.44
65291;SHT30;51893;59.754;10.110;2022-07-21T06:44:54;21.26;77.51
65291;SHT30;51893;59.754;10.110;2022-07-21T06:47:22;21.33;77.56
65291;SHT30;51893;59.754;10.110;2022-07-21T06:49:50;21.45;77.35
65291;SHT30;51893;59.754;10.110;2022-07-21T06:52:17;21.59;76.83
65291;SHT30;51893;59.754;10.110;2022-07-21T06:54:45;21.67;76.35
65291;SHT30;51893;59.754;10.110;2022-07-21T06:57:13;21.70;76.02
65291;SHT30;51893;59.754;10.110;2022-07-21T06:59:41;21.77;75.91
65291;SHT30;51893;59.754;10.110;2022-07-21T07:02:10;21.80;75.39
65291;SHT30;51893;59.754;10.110;2022-07-21T07:04:38;21.84;75.43
65291;SHT30;51893;59.754;10.110;2022-07-21T07:07:06;21.87;75.41
65291;SHT30;51893;59.754;10.110;2022-07-21T07:09:34;21.86;75.32
65291;SHT30;51893;59.754;10.110;2022-07-21T07:12:03;21.86;75.37
65291;SHT30;51893;59.754;10.110;2022-07-21T07:14:53;21.89;75.31
65291;SHT30;51893;59.754;10.110;2022-07-21T07:17:20;21.93;75.22
65291;SHT30;51893;59.754;10.110;2022-07-21T07:19:48;21.93;75.04
65291;SHT30;51893;59.754;10.110;2022-07-21T07:22:17;21.97;75.06
65291;SHT30;51893;59.754;10.110;2022-07-21T07:24:44;21.98;74.90
65291;SHT30;51893;59.754;10.110;2022-07-21T07:27:13;22.03;75.23
65291;SHT30;51893;59.754;10.110;2022-07-21T07:29:41;22.07;74.90
65291;SHT30;51893;59.754;10.110;2022-07-21T07:32:09;22.10;74.82
65291;SHT30;51893;59.754;10.110;2022-07-21T07:34:37;22.12;74.56
65291;SHT30;51893;59.754;10.110;2022-07-21T07:37:04;22.16;74.49
65291;SHT30;51893;59.754;10.110;2022-07-21T07:39:32;22.24;74.63
65291;SHT30;51893;59.754;10.110;2022-07-21T07:42:00;22.33;74.14
65291;SHT30;51893;59.754;10.110;2022-07-21T07:44:28;22.36;73.84
65291;SHT30;51893;59.754;10.110;2022-07-21T07:46:56;22.39;73.93
65291;SHT30;51893;59.754;10.110;2022-07-21T07:49:23;22.47;74.23
65291;SHT30;51893;59.754;10.110;2022-07-21T07:51:51;22.54;74.21
65291;SHT30;51893;59.754;10.110;2022-07-21T07:54:19;22.57;74.22
65291;SHT30;51893;59.754;10.110;2022-07-21T07:56:47;22.57;74.22
65291;SHT30;51893;59.754;10.110;2022-07-21T07:59:15;22.53;74.11
65291;SHT30;51893;59.754;10.110;2022-07-21T08:01:43;22.51;74.10
65291;SHT30;51893;59.754;10.110;2022-07-21T08:04:11;22.55;74.03
65291;SHT30;51893;59.754;10.110;2022-07-21T08:06:41;22.65;74.12
65291;SHT30;51893;59.754;10.110;2022-07-21T08:09:10;22.72;73.81
65291;SHT30;51893;59.754;10.110;2022-07-21T08:11:37;22.77;73.74
65291;SHT30;51893;59.754;10.110;2022-07-21T08:14:05;22.82;73.62
65291;SHT30;51893;59.754;10.110;2022-07-21T08:16:34;22.87;73.68
65291;SHT30;51893;59.754;10.110;2022-07-21T08:19:02;22.93;73.47
65291;SHT30;51893;59.754;10.110;2022-07-21T08:21:34;23.14;73.48
65291;SHT30;51893;59.754;10.110;2022-07-21T08:24:22;23.38;73.23
65291;SHT30;51893;59.754;10.110;2022-07-21T08:26:50;23.50;72.43
65291;SHT30;51893;59.754;10.110;2022-07-21T08:29:18;23.64;72.07
65291;SHT30;51893;59.754;10.110;2022-07-21T08:31:45;23.77;71.60
65291;SHT30;51893;59.754;10.110;2022-07-21T08:34:13;23.88;71.40
65291;SHT30;51893;59.754;10.110;2022-07-21T08:36:41;24.00;70.82
65291;SHT30;51893;59.754;10.110;2022-07-21T08:39:09;24.10;70.82
65291;SHT30;51893;59.754;10.110;2022-07-21T08:41:38;24.14;70.60
65291;SHT30;51893;59.754;10.110;2022-07-21T08:44:08;23.99;70.28
65291;SHT30;51893;59.754;10.110;2022-07-21T08:46:40;23.88;70.63
65291;SHT30;51893;59.754;10.110;2022-07-21T08:49:10;23.90;70.75
65291;SHT30;51893;59.754;10.110;2022-07-21T08:51:38;23.86;70.88
65291;SHT30;51893;59.754;10.110;2022-07-21T08:54:05;23.82;70.98
65291;SHT30;51893;59.754;10.110;2022-07-21T08:56:33;23.88;71.15
65291;SHT30;51893;59.754;10.110;2022-07-21T08:59:01;24.09;70.98
65291;SHT30;51893;59.754;10.110;2022-07-21T09:01:32;24.25;70.41
65291;SHT30;51893;59.754;10.110;2022-07-21T09:06:55;24.44;69.32
65291;SHT30;51893;59.754;10.110;2022-07-21T09:09:27;24.62;68.93
65291;SHT30;51893;59.754;10.110;2022-07-21T09:11:57;24.72;68.41
65291;SHT30;51893;59.754;10.110;2022-07-21T09:14:32;24.85;68.06
65291;SHT30;51893;59.754;10.110;2022-07-21T09:17:02;24.93;66.86
65291;SHT30;51893;59.754;10.110;2022-07-21T09:19:36;24.97;66.38
65291;SHT30;51893;59.754;10.110;2022-07-21T09:22:07;24.97;66.13
65291;SHT30;51893;59.754;10.110;2022-07-21T09:24:50;24.98;66.15
65291;SHT30;51893;59.754;10.110;2022-07-21T09:27:22;25.09;66.34
65291;SHT30;51893;59.754;10.110;2022-07-21T09:29:53;25.25;66.45
65291;SHT30;51893;59.754;10.110;2022-07-21T09:37:41;25.58;65.62
65291;SHT30;51893;59.754;10.110;2022-07-21T09:40:11;25.64;65.33
65291;SHT30;51893;59.754;10.110;2022-07-21T09:42:49;25.72;64.77
65291;SHT30;51893;59.754;10.110;2022-07-21T09:45:18;25.77;64.26
65291;SHT30;51893;59.754;10.110;2022-07-21T09:47:47;25.77;64.04
65291;SHT30;51893;59.754;10.110;2022-07-21T09:50:16;25.77;63.82
65291;SHT30;51893;59.754;10.110;2022-07-21T09:52:55;25.80;63.88
65291;SHT30;51893;59.754;10.110;2022-07-21T09:55:27;25.82;63.88
65291;SHT30;51893;59.754;10.110;2022-07-21T09:57:56;25.82;63.49
65291;SHT30;51893;59.754;10.110;2022-07-21T10:00:26;25.79;63.64
65291;SHT30;51893;59.754;10.110;2022-07-21T10:02:54;25.65;63.52
65291;SHT30;51893;59.754;10.110;2022-07-21T10:05:24;25.54;63.77
65291;SHT30;51893;59.754;10.110;2022-07-21T10:08:00;25.50;63.95
65291;SHT30;51893;59.754;10.110;2022-07-21T10:10:34;25.56;64.50
65291;SHT30;51893;59.754;10.110;2022-07-21T10:13:22;25.72;64.51
65291;SHT30;51893;59.754;10.110;2022-07-21T10:15:51;25.80;64.20
65291;SHT30;51893;59.754;10.110;2022-07-21T10:18:20;25.79;64.30
65291;SHT30;51893;59.754;10.110;2022-07-21T10:20:55;25.93;64.66
65291;SHT30;51893;59.754;10.110;2022-07-21T10:23:41;26.21;63.94
65291;SHT30;51893;59.754;10.110;2022-07-21T10:26:11;26.40;63.65
65291;SHT30;51893;59.754;10.110;2022-07-21T10:28:39;26.53;62.95
65291;SHT30;51893;59.754;10.110;2022-07-21T10:33:51;26.49;62.83
65291;SHT30;51893;59.754;10.110;2022-07-21T10:41:44;26.69;62.44
65291;SHT30;51893;59.754;10.110;2022-07-21T10:47:02;26.73;61.68
65291;SHT30;51893;59.754;10.110;2022-07-21T10:49:41;26.68;61.97
65291;SHT30;51893;59.754;10.110;2022-07-21T10:58:17;26.84;61.80
65291;SHT30;51893;59.754;10.110;2022-07-21T11:00:56;26.91;61.69
65291;SHT30;51893;59.754;10.110;2022-07-21T11:03:36;26.89;61.62
65291;SHT30;51893;59.754;10.110;2022-07-21T11:06:14;26.86;61.58
65291;SHT30;51893;59.754;10.110;2022-07-21T11:09:05;26.92;61.56
65291;SHT30;51893;59.754;10.110;2022-07-21T11:12:00;26.99;61.52
65291;SHT30;51893;59.754;10.110;2022-07-21T11:14:35;26.91;61.42
65291;SHT30;51893;59.754;10.110;2022-07-21T11:17:04;26.87;61.60
65291;SHT30;51893;59.754;10.110;2022-07-21T11:22:11;26.75;61.88
65291;SHT30;51893;59.754;10.110;2022-07-21T11:24:58;26.76;62.00
65291;SHT30;51893;59.754;10.110;2022-07-21T11:27:36;26.89;62.09
65291;SHT30;51893;59.754;10.110;2022-07-21T11:30:08;27.05;61.50
65291;SHT30;51893;59.754;10.110;2022-07-21T11:32:38;27.10;61.46
65291;SHT30;51893;59.754;10.110;2022-07-21T11:35:14;27.08;61.26
65291;SHT30;51893;59.754;10.110;2022-07-21T11:37:44;27.13;61.51
65291;SHT30;51893;59.754;10.110;2022-07-21T11:40:17;27.26;60.85
65291;SHT30;51893;59.754;10.110;2022-07-21T11:42:48;27.29;60.93
65291;SHT30;51893;59.754;10.110;2022-07-21T11:45:22;27.38;60.70
65291;SHT30;51893;59.754;10.110;2022-07-21T11:47:55;27.45;60.43
65291;SHT30;51893;59.754;10.110;2022-07-21T11:50:23;27.50;60.22
65291;SHT30;51893;59.754;10.110;2022-07-21T11:52:50;27.54;60.15
65291;SHT30;51893;59.754;10.110;2022-07-21T11:55:18;27.55;59.86
65291;SHT30;51893;59.754;10.110;2022-07-21T11:57:46;27.62;59.72
65291;SHT30;51893;59.754;10.110;2022-07-21T12:00:15;27.69;59.41
65291;SHT30;51893;59.754;10.110;2022-07-21T12:02:48;27.72;58.96
65291;SHT30;51893;59.754;10.110;2022-07-21T12:05:16;27.84;59.22
65291;SHT30;51893;59.754;10.110;2022-07-21T12:07:49;27.96;58.32
65291;SHT30;51893;59.754;10.110;2022-07-21T12:10:26;28.00;58.05
65291;SHT30;51893;59.754;10.110;2022-07-21T12:13:01;28.05;57.79
65291;SHT30;51893;59.754;10.110;2022-07-21T12:15:33;28.13;57.70
65291;SHT30;51893;59.754;10.110;2022-07-21T12:18:05;28.21;57.88
65291;SHT30;51893;59.754;10.110;2022-07-21T12:20:37;28.27;57.32
65291;SHT30;51893;59.754;10.110;2022-07-21T12:23:25;28.24;57.23
65291;SHT30;51893;59.754;10.110;2022-07-21T12:25:58;28.18;57.18
65291;SHT30;51893;59.754;10.110;2022-07-21T12:28:50;28.19;57.56
65291;SHT30;51893;59.754;10.110;2022-07-21T12:31:25;28.25;57.48
65291;SHT30;51893;59.754;10.110;2022-07-21T12:33:54;28.33;57.62
65291;SHT30;51893;59.754;10.110;2022-07-21T12:36:44;28.45;57.43
65291;SHT30;51893;59.754;10.110;2022-07-21T12:39:17;28.53;57.23
65291;SHT30;51893;59.754;10.110;2022-07-21T12:42:31;28.60;57.17
65291;SHT30;51893;59.754;10.110;2022-07-21T12:45:12;28.65;56.89
65291;SHT30;51893;59.754;10.110;2022-07-21T12:47:41;28.68;56.67
65291;SHT30;51893;59.754;10.110;2022-07-21T12:50:13;28.77;56.85
65291;SHT30;51893;59.754;10.110;2022-07-21T12:52:49;28.89;56.69
65291;SHT30;51893;59.754;10.110;2022-07-21T12:55:17;28.96;56.56
65291;SHT30;51893;59.754;10.110;2022-07-21T12:57:45;28.97;56.40
65291;SHT30;51893;59.754;10.110;2022-07-21T13:00:13;28.99;56.11
65291;SHT30;51893;59.754;10.110;2022-07-21T13:02:48;28.99;56.02
65291;SHT30;51893;59.754;10.110;2022-07-21T13:05:22;28.99;56.05
65291;SHT30;51893;59.754;10.110;2022-07-21T13:07:52;29.02;56.04
65291;SHT30;51893;59.754;10.110;2022-07-21T13:10:21;29.00;55.88
65291;SHT30;51893;59.754;10.110;2022-07-21T13:12:50;28.99;55.68
65291;SHT30;51893;59.754;10.110;2022-07-21T13:15:18;28.82;55.38
65291;SHT30;51893;59.754;10.110;2022-07-21T13:17:45;28.69;55.83
65291;SHT30;51893;59.754;10.110;2022-07-21T13:20:14;28.69;56.05
65291;SHT30;51893;59.754;10.110;2022-07-21T13:22:42;28.64;56.04
65291;SHT30;51893;59.754;10.110;2022-07-21T13:25:10;28.65;56.18
65291;SHT30;51893;59.754;10.110;2022-07-21T13:27:39;28.70;55.90
65291;SHT30;51893;59.754;10.110;2022-07-21T13:30:14;28.77;55.39
65291;SHT30;51893;59.754;10.110;2022-07-21T13:32:44;28.75;55.56
65291;SHT30;51893;59.754;10.110;2022-07-21T13:35:12;28.75;55.50
65291;SHT30;51893;59.754;10.110;2022-07-21T13:37:54;28.74;55.29
65291;SHT30;51893;59.754;10.110;2022-07-21T13:40:24;28.75;55.51
65291;SHT30;51893;59.754;10.110;2022-07-21T13:43:14;28.71;55.27
65291;SHT30;51893;59.754;10.110;2022-07-21T13:46:03;28.65;55.76
65291;SHT30;51893;59.754;10.110;2022-07-21T13:48:32;28.60;55.60
65291;SHT30;51893;59.754;10.110;2022-07-21T13:51:09;28.50;55.61
65291;SHT30;51893;59.754;10.110;2022-07-21T13:53:40;28.43;55.61
65291;SHT30;51893;59.754;10.110;2022-07-21T13:56:09;28.36;55.66
65291;SHT30;51893;59.754;10.110;2022-07-21T13:58:38;28.29;55.71
65291;SHT30;51893;59.754;10.110;2022-07-21T14:01:08;28.19;55.59
65291;SHT30;51893;59.754;10.110;2022-07-21T14:03:37;28.12;55.79
65291;SHT30;51893;59.754;10.110;2022-07-21T14:06:07;28.07;56.18
65291;SHT30;51893;59.754;10.110;2022-07-21T14:08:35;28.02;55.82
65291;SHT30;51893;59.754;10.110;2022-07-21T14:11:04;27.95;55.92
65291;SHT30;51893;59.754;10.110;2022-07-21T14:13:33;27.90;56.01
65291;SHT30;51893;59.754;10.110;2022-07-21T14:16:01;27.84;56.15
65291;SHT30;51893;59.754;10.110;2022-07-21T14:18:29;27.79;56.56
65291;SHT30;51893;59.754;10.110;2022-07-21T14:20:57;27.72;56.36
65291;SHT30;51893;59.754;10.110;2022-07-21T14:23:25;27.66;56.45
65291;SHT30;51893;59.754;10.110;2022-07-21T14:25:55;27.63;56.75
65291;SHT30;51893;59.754;10.110;2022-07-21T14:28:22;27.61;56.97
65291;SHT30;51893;59.754;10.110;2022-07-21T14:30:51;27.62;57.47
65291;SHT30;51893;59.754;10.110;2022-07-21T14:33:26;27.64;57.39
65291;SHT30;51893;59.754;10.110;2022-07-21T14:35:56;27.62;57.37
65291;SHT30;51893;59.754;10.110;2022-07-21T14:38:25;27.60;57.29
65291;SHT30;51893;59.754;10.110;2022-07-21T14:40:53;27.60;57.16
65291;SHT30;51893;59.754;10.110;2022-07-21T14:43:21;27.60;57.06
65291;SHT30;51893;59.754;10.110;2022-07-21T14:45:48;27.54;56.89
65291;SHT30;51893;59.754;10.110;2022-07-21T14:48:16;27.49;57.00
65291;SHT30;51893;59.754;10.110;2022-07-21T14:50:44;27.42;56.98
65291;SHT30;51893;59.754;10.110;2022-07-21T14:53:12;27.34;57.58
65291;SHT30;51893;59.754;10.110;2022-07-21T14:55:39;27.23;58.78
65291;SHT30;51893;59.754;10.110;2022-07-21T14:58:11;27.12;59.79
65291;SHT30;51893;59.754;10.110;2022-07-21T15:00:39;27.02;61.06
65291;SHT30;51893;59.754;10.110;2022-07-21T15:03:07;26.90;61.48
65291;SHT30;51893;59.754;10.110;2022-07-21T15:05:35;26.80;62.33
65291;SHT30;51893;59.754;10.110;2022-07-21T15:08:03;26.73;62.73
65291;SHT30;51893;59.754;10.110;2022-07-21T15:10:40;26.71;62.99
65291;SHT30;51893;59.754;10.110;2022-07-21T15:13:09;26.67;63.28
65291;SHT30;51893;59.754;10.110;2022-07-21T15:15:38;26.64;63.53
65291;SHT30;51893;59.754;10.110;2022-07-21T15:18:08;26.57;64.40
65291;SHT30;51893;59.754;10.110;2022-07-21T15:20:36;26.49;64.78
65291;SHT30;51893;59.754;10.110;2022-07-21T15:23:04;26.43;65.04
65291;SHT30;51893;59.754;10.110;2022-07-21T15:25:32;26.38;65.10
65291;SHT30;51893;59.754;10.110;2022-07-21T15:28:00;26.34;65.20
65291;SHT30;51893;59.754;10.110;2022-07-21T15:30:28;26.30;64.96
65291;SHT30;51893;59.754;10.110;2022-07-21T15:32:56;26.23;64.83
65291;SHT30;51893;59.754;10.110;2022-07-21T15:35:23;26.16;64.75
65291;SHT30;51893;59.754;10.110;2022-07-21T15:37:52;26.14;64.47
65291;SHT30;51893;59.754;10.110;2022-07-21T15:40:20;26.13;64.59
65291;SHT30;51893;59.754;10.110;2022-07-21T15:42:49;26.16;64.87
65291;SHT30;51893;59.754;10.110;2022-07-21T15:45:17;26.19;64.66
65291;SHT30;51893;59.754;10.110;2022-07-21T15:47:45;26.22;64.28
65291;SHT30;51893;59.754;10.110;2022-07-21T15:50:13;26.21;64.31
65291;SHT30;51893;59.754;10.110;2022-07-21T15:52:43;26.21;64.24
65291;SHT30;51893;59.754;10.110;2022-07-21T15:55:11;26.20;64.40
65291;SHT30;51893;59.754;10.110;2022-07-21T15:57:39;26.21;64.05
65291;SHT30;51893;59.754;10.110;2022-07-21T16:00:09;26.21;64.40